createdAt,value
2019-02-04T00:01:20.332Z,102113.72
2019-02-04T00:03:49.675Z,102115.97
2019-02-04T00:06:19.554Z,102115.97
2019-02-04T00:08:48.884Z,102116.01
2019-02-04T00:11:18.597Z,102107.63
2019-02-04T00:13:48.292Z,102116.86
2019-02-04T00:16:17.932Z,102115.97
2019-02-04T00:18:54.463Z,102115.97
2019-02-04T00:21:24.799Z,102115.97
2019-02-04T00:23:54.345Z,102108.52
2019-02-04T00:26:23.892Z,102106.70
2019-02-04T00:28:53.730Z,102103.58
2019-02-04T00:31:23.553Z,102094.84
2019-02-04T00:33:52.904Z,102094.84
2019-02-04T00:36:22.556Z,102105.44
2019-02-04T00:38:51.918Z,102097.09
2019-02-04T00:41:21.415Z,102097.09
2019-02-04T00:43:50.761Z,102092.69
2019-02-04T00:46:20.711Z,102099.31
2019-02-04T00:48:50.070Z,102098.42
2019-02-04T00:51:20.105Z,102102.83
2019-02-04T00:53:49.461Z,102109.84
2019-02-04T00:56:18.824Z,102109.45
2019-02-04T00:58:48.472Z,102118.72
2019-02-04T01:01:18.104Z,102113.00
2019-02-04T01:03:48.889Z,102124.02
2019-02-04T01:06:18.519Z,102122.73
2019-02-04T01:08:50.466Z,102127.53
2019-02-04T01:11:19.804Z,102137.67
2019-02-04T01:13:49.455Z,102137.70
2019-02-04T01:16:18.921Z,102128.96
2019-02-04T01:18:55.917Z,102140.42
2019-02-04T01:21:27.703Z,102139.98
2019-02-04T01:23:57.052Z,102140.85
2019-02-04T01:26:26.699Z,102143.97
2019-02-04T01:28:56.298Z,102144.86
2019-02-04T01:31:27.388Z,102145.32
2019-02-04T01:33:56.738Z,102141.78
2019-02-04T01:36:26.086Z,102152.37
2019-02-04T01:38:55.712Z,102154.59
2019-02-04T01:41:25.295Z,102157.67
2019-02-04T01:43:54.921Z,102157.21
2019-02-04T01:46:24.251Z,102159.44
2019-02-04T01:48:53.860Z,102159.86
2019-02-04T01:51:23.460Z,102170.43
2019-02-04T01:53:52.808Z,102168.21
2019-02-04T01:56:22.867Z,102165.56
2019-02-04T01:58:52.580Z,102174.87
2019-02-04T02:01:22.213Z,102167.81
2019-02-04T02:03:51.827Z,102175.39
2019-02-04T02:06:22.041Z,102177.20
2019-02-04T02:08:51.662Z,102173.70
2019-02-04T02:11:21.040Z,102178.13
2019-02-04T02:13:50.669Z,102176.44
2019-02-04T02:16:20.556Z,102183.52
2019-02-04T02:18:49.907Z,102192.77
2019-02-04T02:21:19.549Z,102194.49
2019-02-04T02:23:49.147Z,102185.22
2019-02-04T02:26:19.041Z,102188.39
2019-02-04T02:28:48.943Z,102189.74
2019-02-04T02:31:19.130Z,102184.01
2019-02-04T02:33:49.506Z,102184.07
2019-02-04T02:36:19.110Z,102187.21
2019-02-04T02:38:49.710Z,102190.32
2019-02-04T02:41:19.141Z,102195.61
2019-02-04T02:43:49.623Z,102190.75
2019-02-04T02:46:19.078Z,102186.75
2019-02-04T02:48:49.775Z,102189.34
2019-02-04T02:51:19.120Z,102184.50
2019-02-04T02:53:48.765Z,102187.98
2019-02-04T02:56:18.114Z,102173.45
2019-02-04T02:58:47.859Z,102177.02
2019-02-04T03:01:17.198Z,102179.27
2019-02-04T03:03:47.407Z,102179.27
2019-02-04T03:06:17.066Z,102180.56
2019-02-04T03:08:47.092Z,102179.23
2019-02-04T03:11:16.870Z,102184.10
2019-02-04T03:13:47.121Z,102184.97
2019-02-04T03:16:17.120Z,102181.85
2019-02-04T03:18:51.806Z,102184.50
2019-02-04T03:21:21.251Z,102188.53
2019-02-04T03:23:50.915Z,102182.00
2019-02-04T03:26:20.262Z,102188.63
2019-02-04T03:28:49.922Z,102193.91
2019-02-04T03:31:21.122Z,102196.13
2019-02-04T03:33:50.438Z,102203.16
2019-02-04T03:36:20.131Z,102196.08
2019-02-04T03:38:49.767Z,102196.91
2019-02-04T03:41:19.173Z,102198.20
2019-02-04T03:43:48.860Z,102191.55
2019-02-04T03:46:18.514Z,102191.09
2019-02-04T03:48:48.104Z,102191.56
2019-02-04T03:51:17.457Z,102184.50
2019-02-04T03:53:46.870Z,102184.97
2019-02-04T03:56:17.332Z,102188.07
2019-02-04T03:58:47.042Z,102188.13
2019-02-04T04:01:16.506Z,102196.11
2019-02-04T04:03:45.947Z,102186.86
2019-02-04T04:06:15.605Z,102190.42
2019-02-04T04:08:45.147Z,102198.83
2019-02-04T04:11:15.098Z,102194.43
2019-02-04T04:13:44.434Z,102196.62
2019-02-04T04:16:14.040Z,102191.81
2019-02-04T04:18:43.387Z,102191.38
2019-02-04T04:21:13.348Z,102190.91
2019-02-04T04:23:42.932Z,102197.56
2019-02-04T04:26:14.466Z,102194.91
2019-02-04T04:28:44.164Z,102187.86
2019-02-04T04:31:13.972Z,102195.41
2019-02-04T04:33:43.312Z,102198.88
2019-02-04T04:36:14.234Z,102195.80
2019-02-04T04:38:43.872Z,102194.02
2019-02-04T04:41:13.669Z,102192.27
2019-02-04T04:43:43.226Z,102201.05
2019-02-04T04:46:13.530Z,102196.19
2019-02-04T04:48:44.138Z,102194.38
2019-02-04T04:51:14.183Z,102197.48
2019-02-04T04:53:43.535Z,102194.38
2019-02-04T04:56:14.887Z,102195.27
2019-02-04T04:58:44.696Z,102197.42
2019-02-04T05:01:14.431Z,102194.78
2019-02-04T05:03:43.769Z,102180.19
2019-02-04T05:06:15.422Z,102184.62
2019-02-04T05:08:45.305Z,102184.59
2019-02-04T05:11:15.278Z,102172.64
2019-02-04T05:13:44.608Z,102172.64
2019-02-04T05:16:14.469Z,102171.34
2019-02-04T05:18:44.139Z,102166.94
2019-02-04T05:21:14.158Z,102176.70
2019-02-04T05:23:43.497Z,102180.67
2019-02-04T05:26:13.846Z,102173.16
2019-02-04T05:28:44.328Z,102180.19
2019-02-04T05:31:13.686Z,102183.23
2019-02-04T05:33:44.544Z,102179.69
2019-02-04T05:36:14.193Z,102176.59
2019-02-04T05:38:45.302Z,102181.86
2019-02-04T05:41:14.620Z,102176.56
2019-02-04T05:43:44.189Z,102175.20
2019-02-04T05:46:13.809Z,102174.72
2019-02-04T05:48:49.415Z,102174.69
2019-02-04T05:51:16.252Z,102169.39
2019-02-04T05:53:45.615Z,102181.24
2019-02-04T05:56:15.280Z,102180.41
2019-02-04T05:58:44.626Z,102190.58
2019-02-04T06:01:14.533Z,102187.50
2019-02-04T06:03:44.172Z,102193.16
2019-02-04T06:06:13.632Z,102201.09
2019-02-04T06:08:43.264Z,102196.65
2019-02-04T06:11:13.525Z,102198.41
2019-02-04T06:13:43.292Z,102205.46
2019-02-04T06:16:13.737Z,102204.14
2019-02-04T06:19:00.448Z,102207.19
2019-02-04T06:21:23.338Z,102207.19
2019-02-04T06:23:52.693Z,102209.44
2019-02-04T06:26:22.506Z,102213.41
2019-02-04T06:28:52.151Z,102213.41
2019-02-04T06:31:21.830Z,102210.77
2019-02-04T06:33:51.463Z,102211.62
2019-02-04T06:36:20.814Z,102212.48
2019-02-04T06:38:50.264Z,102214.27
2019-02-04T06:41:19.629Z,102214.27
2019-02-04T06:43:49.313Z,102213.81
2019-02-04T06:46:18.955Z,102222.20
2019-02-04T06:48:48.468Z,102228.36
2019-02-04T06:51:17.804Z,102226.56
2019-02-04T06:53:47.533Z,102231.87
2019-02-04T06:56:18.203Z,102230.98
2019-02-04T06:58:47.552Z,102235.84
2019-02-04T07:01:17.726Z,102231.44
2019-02-04T07:03:47.426Z,102227.89
2019-02-04T07:06:16.761Z,102233.19
2019-02-04T07:08:46.405Z,102230.14
2019-02-04T07:11:17.372Z,102229.66
2019-02-04T07:13:47.711Z,102218.99
2019-02-04T07:16:17.628Z,102218.06
2019-02-04T07:18:49.351Z,102221.98
2019-02-04T07:21:21.061Z,102214.95
2019-02-04T07:23:50.280Z,102209.56
2019-02-04T07:26:19.692Z,102213.91
2019-02-04T07:28:49.346Z,102209.44
2019-02-04T07:31:18.981Z,102208.47
2019-02-04T07:33:48.615Z,102210.56
2019-02-04T07:36:18.527Z,102206.98
2019-02-04T07:38:47.859Z,102206.02
2019-02-04T07:41:17.516Z,102197.17
2019-02-04T07:43:46.854Z,102197.06
2019-02-04T07:46:16.514Z,102193.88
2019-02-04T07:48:45.853Z,102191.86
2019-02-04T07:51:16.358Z,102185.55
2019-02-04T07:53:47.197Z,102185.47
2019-02-04T07:56:16.878Z,102179.11
2019-02-04T07:58:46.792Z,102177.70
2019-02-04T08:01:16.148Z,102178.68
2019-02-04T08:03:45.582Z,102176.14
2019-02-04T08:06:14.937Z,102185.20
2019-02-04T08:08:44.572Z,102177.97
2019-02-04T08:11:13.998Z,102174.83
2019-02-04T08:13:43.678Z,102173.92
2019-02-04T08:16:13.859Z,102168.62
2019-02-04T08:18:48.143Z,102162.02
2019-02-04T08:21:17.803Z,102166.33
2019-02-04T08:23:48.860Z,102162.85
2019-02-04T08:26:18.468Z,102159.95
2019-02-04T08:28:48.054Z,102159.95
2019-02-04T08:31:18.087Z,102165.47
2019-02-04T08:33:47.940Z,102168.81
2019-02-04T08:36:17.831Z,102159.21
2019-02-04T08:38:47.420Z,102155.39
2019-02-04T08:41:17.056Z,102159.52
2019-02-04T08:43:46.688Z,102149.70
2019-02-04T08:46:16.033Z,102152.31
2019-02-04T08:48:45.730Z,102159.56
2019-02-04T08:51:16.715Z,102161.76
2019-02-04T08:53:46.057Z,102167.93
2019-02-04T08:56:16.760Z,102161.02
2019-02-04T08:58:46.121Z,102163.43
2019-02-04T09:01:15.861Z,102167.66
2019-02-04T09:03:45.510Z,102166.08
2019-02-04T09:06:14.972Z,102170.08
2019-02-04T09:08:44.762Z,102171.06
2019-02-04T09:11:14.344Z,102166.95
2019-02-04T09:13:44.002Z,102172.02
2019-02-04T09:16:14.352Z,102171.05
2019-02-04T09:18:45.063Z,102174.09
2019-02-04T09:21:14.797Z,102176.57
2019-02-04T09:23:44.454Z,102172.14
2019-02-04T09:26:15.048Z,102170.41
2019-02-04T09:28:44.684Z,102164.16
2019-02-04T09:31:15.161Z,102164.16
2019-02-04T09:33:44.777Z,102161.67
2019-02-04T09:36:14.215Z,102154.23
2019-02-04T09:38:43.994Z,102153.08
2019-02-04T09:41:14.098Z,102153.08
2019-02-04T09:43:43.720Z,102158.16
2019-02-04T09:46:14.173Z,102154.73
2019-02-04T09:48:44.026Z,102153.75
2019-02-04T09:51:14.140Z,102148.36
2019-02-04T09:53:43.763Z,102148.36
2019-02-04T09:56:14.305Z,102137.58
2019-02-04T09:58:43.903Z,102135.65
2019-02-04T10:01:14.619Z,102134.61
2019-02-04T10:03:43.959Z,102138.60
2019-02-04T10:06:14.147Z,102125.83
2019-02-04T10:08:43.771Z,102128.63
2019-02-04T10:11:14.319Z,102128.63
2019-02-04T10:13:43.909Z,102130.80
2019-02-04T10:16:14.304Z,102128.20
2019-02-04T10:18:44.087Z,102130.42
2019-02-04T10:21:15.811Z,102131.94
2019-02-04T10:23:45.286Z,102130.12
2019-02-04T10:26:14.886Z,102123.40
2019-02-04T10:28:44.239Z,102119.77
2019-02-04T10:31:14.390Z,102117.80
2019-02-04T10:33:43.955Z,102118.77
2019-02-04T10:36:14.157Z,102122.22
2019-02-04T10:38:43.811Z,102119.48
2019-02-04T10:41:14.406Z,102125.23
2019-02-04T10:43:43.925Z,102124.75
2019-02-04T10:46:14.226Z,102123.42
2019-02-04T10:48:43.936Z,102116.70
2019-02-04T10:51:14.409Z,102112.63
2019-02-04T10:53:43.901Z,102118.66
2019-02-04T10:56:16.302Z,102113.77
2019-02-04T10:58:45.283Z,102112.44
2019-02-04T11:01:14.944Z,102111.66
2019-02-04T11:03:44.927Z,102100.02
2019-02-04T11:06:14.320Z,102100.80
2019-02-04T11:08:43.861Z,102101.75
2019-02-04T11:11:14.248Z,102094.55
2019-02-04T11:13:43.940Z,102089.75
2019-02-04T11:16:13.500Z,102080.99
2019-02-04T11:18:43.073Z,102093.91
2019-02-04T11:21:12.449Z,102080.16
2019-02-04T11:23:42.266Z,102074.69
2019-02-04T11:26:11.677Z,102084.02
2019-02-04T11:28:41.143Z,102082.19
2019-02-04T11:31:10.488Z,102083.44
2019-02-04T11:33:40.040Z,102082.05
2019-02-04T11:36:09.429Z,102084.10
2019-02-04T11:38:39.195Z,102075.66
2019-02-04T11:41:08.656Z,102076.58
2019-02-04T11:43:38.132Z,102072.50
2019-02-04T11:46:07.465Z,102067.11
2019-02-04T11:48:37.051Z,102064.52
2019-02-04T11:51:09.899Z,102068.80
2019-02-04T11:53:38.446Z,102071.23
2019-02-04T11:56:08.070Z,102071.45
2019-02-04T11:58:37.420Z,102060.78
2019-02-04T12:01:07.352Z,102060.16
2019-02-04T12:03:37.002Z,102053.41
2019-02-04T12:06:07.010Z,102053.13
2019-02-04T12:08:37.877Z,102060.42
2019-02-04T12:11:07.452Z,102053.22
2019-02-04T12:13:37.104Z,102058.34
2019-02-04T12:16:06.510Z,102054.83
2019-02-04T12:18:36.220Z,102043.58
2019-02-04T12:21:06.142Z,102055.59
2019-02-04T12:23:35.495Z,102053.05
2019-02-04T12:26:05.316Z,102048.98
2019-02-04T12:28:34.644Z,102051.15
2019-02-04T12:31:04.241Z,102049.66
2019-02-04T12:33:33.590Z,102049.94
2019-02-04T12:36:03.412Z,102044.66
2019-02-04T12:38:33.070Z,102040.73
2019-02-04T12:41:03.620Z,102039.27
2019-02-04T12:43:33.300Z,102049.50
2019-02-04T12:46:02.691Z,102039.42
2019-02-04T12:48:33.211Z,102041.80
2019-02-04T12:51:04.584Z,102043.20
2019-02-04T12:53:34.423Z,102042.88
2019-02-04T12:56:05.304Z,102036.93
2019-02-04T12:58:34.630Z,102030.19
2019-02-04T13:01:05.086Z,102029.63
2019-02-04T13:03:34.389Z,102033.34
2019-02-04T13:06:04.559Z,102028.83
2019-02-04T13:08:34.155Z,102014.91
2019-02-04T13:11:03.498Z,102021.46
2019-02-04T13:13:33.781Z,102018.77
2019-02-04T13:16:03.651Z,102015.27
2019-02-04T13:18:33.554Z,102013.45
2019-02-04T13:21:10.526Z,102003.66
2019-02-04T13:23:40.146Z,102006.17
2019-02-04T13:26:10.068Z,102005.73
2019-02-04T13:28:39.401Z,101999.88
2019-02-04T13:31:09.449Z,102009.73
2019-02-04T13:33:38.773Z,102004.33
2019-02-04T13:36:08.290Z,101995.81
2019-02-04T13:38:37.620Z,102000.64
2019-02-04T13:41:11.883Z,102002.77
2019-02-04T13:43:41.661Z,102000.08
2019-02-04T13:46:11.345Z,101993.24
2019-02-04T13:48:40.912Z,102005.28
2019-02-04T13:51:11.049Z,102004.11
2019-02-04T13:53:41.348Z,102004.52
2019-02-04T13:56:11.260Z,101991.23
2019-02-04T13:58:40.591Z,101995.34
2019-02-04T14:01:11.033Z,101986.06
2019-02-04T14:03:40.323Z,101983.90
2019-02-04T14:06:10.296Z,101984.79
2019-02-04T14:08:39.623Z,101979.13
2019-02-04T14:11:10.056Z,101982.28
2019-02-04T14:13:39.808Z,101986.22
2019-02-04T14:16:09.681Z,101982.22
2019-02-04T14:18:39.299Z,101977.45
2019-02-04T14:21:09.477Z,101977.38
2019-02-04T14:23:39.450Z,101973.86
2019-02-04T14:26:09.020Z,101966.36
2019-02-04T14:28:38.353Z,101967.19
2019-02-04T14:31:07.887Z,101957.02
2019-02-04T14:33:37.464Z,101956.95
2019-02-04T14:36:07.230Z,101949.94
2019-02-04T14:38:36.737Z,101951.81
2019-02-04T14:41:06.658Z,101945.58
2019-02-04T14:43:37.563Z,101944.25
2019-02-04T14:46:22.227Z,101943.99
2019-02-04T14:49:09.946Z,101933.22
2019-02-04T14:52:21.387Z,101948.31
2019-02-04T14:54:59.284Z,101937.16
2019-02-04T14:57:41.616Z,101928.48
2019-02-04T15:00:40.078Z,101931.35
2019-02-04T15:03:30.531Z,101935.80
2019-02-04T15:06:10.122Z,101924.27
2019-02-04T15:08:58.736Z,101922.55
2019-02-04T15:11:31.547Z,101917.69
2019-02-04T15:14:10.024Z,101913.41
2019-02-04T15:16:45.336Z,101906.35
2019-02-04T15:19:46.241Z,101913.44
2019-02-04T15:22:44.896Z,101911.59
2019-02-04T15:25:23.966Z,101899.27
2019-02-04T15:28:16.351Z,101890.34
2019-02-04T15:30:58.374Z,101891.81
2019-02-04T15:33:36.464Z,101901.66
2019-02-04T15:36:26.237Z,101899.47
2019-02-04T15:39:33.026Z,101896.25
2019-02-04T15:42:18.454Z,101893.59
2019-02-04T15:45:14.729Z,101895.46
2019-02-04T15:47:47.589Z,101893.23
2019-02-04T15:50:38.492Z,101897.65
2019-02-04T15:53:07.870Z,101898.22
2019-02-04T15:55:40.000Z,101891.05
2019-02-04T15:58:08.719Z,101894.66
2019-02-04T16:00:38.051Z,101883.70
2019-02-04T16:03:07.777Z,101882.85
2019-02-04T16:05:37.343Z,101879.87
2019-02-04T16:08:07.023Z,101882.59
2019-02-04T16:10:37.763Z,101885.11
2019-02-04T16:13:08.179Z,101885.11
2019-02-04T16:15:37.820Z,101866.19
2019-02-04T16:18:07.183Z,101870.12
2019-02-04T16:20:36.542Z,101879.01
2019-02-04T16:23:05.958Z,101864.18
2019-02-04T16:25:35.293Z,101863.16
2019-02-04T16:28:05.250Z,101857.83
2019-02-04T16:30:34.586Z,101853.42
2019-02-04T16:33:04.094Z,101841.45
2019-02-04T16:35:33.436Z,101839.67
2019-02-04T16:38:02.955Z,101844.11
2019-02-04T16:40:32.575Z,101844.88
2019-02-04T16:43:02.248Z,101840.84
2019-02-04T16:45:32.039Z,101848.84
2019-02-04T16:48:01.386Z,101851.80
2019-02-04T16:50:31.140Z,101848.19
2019-02-04T16:53:10.237Z,101852.62
2019-02-04T16:55:32.474Z,101846.12
2019-02-04T16:58:01.919Z,101856.69
2019-02-04T17:00:31.695Z,101856.98
2019-02-04T17:03:01.056Z,101851.98
2019-02-04T17:05:30.923Z,101857.73
2019-02-04T17:08:00.265Z,101855.45
2019-02-04T17:10:29.906Z,101873.55
2019-02-04T17:12:59.278Z,101873.55
2019-02-04T17:15:29.331Z,101875.58
2019-02-04T17:17:59.211Z,101878.66
2019-02-04T17:20:31.078Z,101875.86
2019-02-04T17:23:00.408Z,101887.02
2019-02-04T17:25:30.361Z,101891.48
2019-02-04T17:28:01.078Z,101894.16
2019-02-04T17:30:30.879Z,101886.92
2019-02-04T17:33:01.124Z,101894.92
2019-02-04T17:35:30.523Z,101903.02
2019-02-04T17:38:00.241Z,101910.55
2019-02-04T17:40:29.654Z,101903.37
2019-02-04T17:43:00.229Z,101888.76
2019-02-04T17:45:29.581Z,101900.28
2019-02-04T17:47:59.426Z,101886.92
2019-02-04T17:50:28.865Z,101888.19
2019-02-04T17:52:58.540Z,101888.19
2019-02-04T17:55:29.696Z,101897.42
2019-02-04T17:57:59.100Z,101897.42
2019-02-04T18:00:45.578Z,101881.42
2019-02-04T18:03:15.750Z,101896.25
2019-02-04T18:05:45.245Z,101884.98
2019-02-04T18:08:17.118Z,101895.36
2019-02-04T18:10:46.713Z,101896.22
2019-02-04T18:13:16.930Z,101897.05
2019-02-04T18:15:46.518Z,101886.44
2019-02-04T18:18:16.142Z,101871.77
2019-02-04T18:20:45.480Z,101868.19
2019-02-04T18:23:15.859Z,101869.05
2019-02-04T18:25:45.225Z,101871.86
2019-02-04T18:28:15.516Z,101863.93
2019-02-04T18:30:47.096Z,101863.45
2019-02-04T18:33:16.717Z,101855.96
2019-02-04T18:35:46.347Z,101854.02
2019-02-04T18:38:15.678Z,101857.67
2019-02-04T18:40:45.359Z,101834.63
2019-02-04T18:43:15.559Z,101838.59
2019-02-04T18:45:45.178Z,101833.10
2019-02-04T18:48:15.501Z,101836.56
2019-02-04T18:50:45.357Z,101827.23
2019-02-04T18:53:15.704Z,101820.81
2019-02-04T18:55:45.256Z,101818.14
2019-02-04T18:58:15.821Z,101818.14
2019-02-04T19:00:45.445Z,101811.03
2019-02-04T19:03:17.534Z,101817.22
2019-02-04T19:05:46.631Z,101817.22
2019-02-04T19:08:16.293Z,101817.16
2019-02-04T19:10:45.593Z,101813.22
2019-02-04T19:13:15.687Z,101803.54
2019-02-04T19:15:45.429Z,101806.62
2019-02-04T19:18:18.633Z,101798.04
2019-02-04T19:20:47.913Z,101799.30
2019-02-04T19:23:17.586Z,101805.53
2019-02-04T19:25:48.203Z,101797.97
2019-02-04T19:28:18.597Z,101797.88
2019-02-04T19:30:59.921Z,101804.47
2019-02-04T19:33:29.784Z,101803.14
2019-02-04T19:35:59.519Z,101811.97
2019-02-04T19:38:34.799Z,101811.45
2019-02-04T19:41:17.673Z,101820.41
2019-02-04T19:43:47.578Z,101824.80
2019-02-04T19:46:17.506Z,101835.84
2019-02-04T19:48:46.839Z,101830.98
2019-02-04T19:51:16.975Z,101827.39
2019-02-04T19:53:46.434Z,101825.14
2019-02-04T19:56:16.215Z,101816.73
2019-02-04T19:58:45.547Z,101829.97
2019-02-04T20:01:15.678Z,101820.16
2019-02-04T20:03:45.346Z,101822.92
2019-02-04T20:06:15.807Z,101815.45
2019-02-04T20:08:46.674Z,101816.73
2019-02-04T20:11:16.324Z,101833.59
2019-02-04T20:13:46.581Z,101833.59
2019-02-04T20:16:16.138Z,101826.06
2019-02-04T20:18:46.557Z,101831.33
2019-02-04T20:21:15.881Z,101832.57
2019-02-04T20:23:45.593Z,101837.56
2019-02-04T20:26:16.034Z,101834.52
2019-02-04T20:28:47.886Z,101841.25
2019-02-04T20:31:17.980Z,101839.98
2019-02-04T20:33:49.157Z,101847.47
2019-02-04T20:36:18.716Z,101852.33
2019-02-04T20:38:49.965Z,101858.14
2019-02-04T20:41:19.586Z,101857.25
2019-02-04T20:43:48.937Z,101858.66
2019-02-04T20:46:18.597Z,101860.08
2019-02-04T20:48:48.854Z,101858.75
2019-02-04T20:51:18.473Z,101861.92
2019-02-04T20:53:48.123Z,101861.00
2019-02-04T20:56:17.746Z,101855.67
2019-02-04T20:58:47.774Z,101849.38
2019-02-04T21:01:17.733Z,101867.16
2019-02-04T21:03:48.484Z,101865.77
2019-02-04T21:06:17.839Z,101858.17
2019-02-04T21:08:47.513Z,101860.43
2019-02-04T21:11:16.837Z,101865.01
2019-02-04T21:13:46.842Z,101863.39
2019-02-04T21:16:17.767Z,101852.72
2019-02-04T21:18:47.097Z,101854.88
2019-02-04T21:21:16.848Z,101855.89
2019-02-04T21:23:46.489Z,101846.15
2019-02-04T21:26:15.960Z,101861.64
2019-02-04T21:28:45.597Z,101864.72
2019-02-04T21:31:15.925Z,101868.16
2019-02-04T21:33:45.807Z,101869.00
2019-02-04T21:36:16.233Z,101869.83
2019-02-04T21:38:45.715Z,101865.83
2019-02-04T21:41:16.133Z,101873.33
2019-02-04T21:43:45.749Z,101871.10
2019-02-04T21:46:16.002Z,101872.81
2019-02-04T21:48:45.700Z,101872.84
2019-02-04T21:51:16.084Z,101880.91
2019-02-04T21:53:45.719Z,101886.83
2019-02-04T21:56:16.042Z,101876.81
2019-02-04T21:58:45.698Z,101870.56
2019-02-04T22:01:22.078Z,101881.65
2019-02-04T22:03:51.750Z,101881.71
2019-02-04T22:06:21.101Z,101881.30
2019-02-04T22:08:50.683Z,101879.90
2019-02-04T22:11:20.010Z,101876.81
2019-02-04T22:13:49.973Z,101878.16
2019-02-04T22:16:19.898Z,101887.14
2019-02-04T22:18:57.934Z,101889.96
2019-02-04T22:21:27.254Z,101884.63
2019-02-04T22:23:57.894Z,101877.20
2019-02-04T22:26:27.222Z,101876.09
2019-02-04T22:28:57.693Z,101877.86
2019-02-04T22:31:27.311Z,101878.34
2019-02-04T22:33:57.750Z,101873.45
2019-02-04T22:36:27.524Z,101869.52
2019-02-04T22:38:56.840Z,101867.20
2019-02-04T22:41:26.185Z,101877.86
2019-02-04T22:43:55.683Z,101868.59
2019-02-04T22:46:25.317Z,101875.06
2019-02-04T22:48:54.906Z,101872.90
2019-02-04T22:51:24.228Z,101872.55
2019-02-04T22:53:54.082Z,101869.95
2019-02-04T22:56:24.009Z,101877.53
2019-02-04T22:58:53.341Z,101875.30
2019-02-04T23:01:26.150Z,101881.62
2019-02-04T23:03:56.202Z,101881.62
2019-02-04T23:06:25.802Z,101889.67
2019-02-04T23:08:55.125Z,101891.01
2019-02-04T23:11:24.764Z,101876.77
2019-02-04T23:13:54.096Z,101890.88
2019-02-04T23:16:24.036Z,101891.42
2019-02-04T23:18:54.147Z,101882.03
2019-02-04T23:21:23.788Z,101887.45
2019-02-04T23:23:54.829Z,101892.44
2019-02-04T23:26:24.243Z,101902.83
2019-02-04T23:28:53.798Z,101894.41
2019-02-04T23:31:23.460Z,101893.63
2019-02-04T23:33:52.986Z,101891.39
2019-02-04T23:36:22.954Z,101890.48
2019-02-04T23:38:52.355Z,101881.56
2019-02-04T23:41:22.113Z,101887.81
2019-02-04T23:43:51.989Z,101886.19
2019-02-04T23:46:21.639Z,101896.31
2019-02-04T23:48:51.025Z,101901.77
2019-02-04T23:51:20.609Z,101908.52
2019-02-04T23:53:49.937Z,101911.37
2019-02-04T23:56:19.583Z,101911.52
2019-02-04T23:58:49.060Z,101910.61
